Time;durP1;ratioP1;P1;durP2;ratioP2;P2;SDS_P1;SDS_P2;PMS_P1;PMS_P2;Temp;Humidity;BMP_temperature;BMP_pressure;BME280_temperature;BME280_humidity;BME280_pressure;Samples;Min_cycle;Max_cycle;Signal;HPM_P1;HPM_P2
2023/01/10 01:50:50;;;;;;;3.30;2.20;;;;;;;-3.06;100.00;100100.98;102334;1282;615414;-61
2023/01/10 01:53:20;;;;;;;3.80;2.00;;;;;;;-2.73;100.00;100099.02;103524;1265;61631;-59
2023/01/10 02:00:53;;;;;;;7.00;2.30;;;;;;;-2.43;100.00;100108.47;103490;1270;71084;-62
2023/01/10 02:03:20;;;;;;;2.80;1.90;;;;;;;-2.44;100.00;100108.28;103519;1267;262558;-60
2023/01/10 02:05:47;;;;;;;3.30;1.90;;;;;;;-2.43;100.00;100106.42;103919;1268;72447;-61
2023/01/10 02:08:14;;;;;;;2.80;2.00;;;;;;;-2.40;100.00;100104.59;103906;1263;59259;-59
2023/01/10 02:11:20;;;;;;;4.70;2.10;;;;;;;-2.37;100.00;100105.84;103468;1270;60224;-58
2023/01/10 02:13:49;;;;;;;2.60;1.90;;;;;;;-2.36;100.00;100108.59;103292;1276;71467;-60
2023/01/10 02:16:16;;;;;;;5.00;2.20;;;;;;;-2.37;100.00;100110.63;103195;1272;69684;-60
2023/01/10 02:18:43;;;;;;;3.20;1.80;;;;;;;-2.32;100.00;100108.15;103617;1280;72225;-59
2023/01/10 02:21:52;;;;;;;5.90;2.30;;;;;;;-2.18;100.00;100107.86;103967;1264;59640;-59
2023/01/10 02:24:45;;;;;;;9.10;2.20;;;;;;;-2.15;100.00;100106.02;103609;1267;59766;-60
2023/01/10 02:27:22;;;;;;;6.60;2.00;;;;;;;-2.09;100.00;100102.67;103940;1265;72074;-60
2023/01/10 02:29:57;;;;;;;3.00;1.70;;;;;;;-2.10;100.00;100099.55;103840;1267;68661;-59
2023/01/10 02:32:27;;;;;;;10.00;2.50;;;;;;;-2.13;100.00;100096.95;103938;1263;72116;-59
2023/01/10 02:35:53;;;;;;;3.50;2.10;;;;;;;-2.14;100.00;100096.24;103956;1268;59775;-59
2023/01/10 02:38:22;;;;;;;7.50;2.50;;;;;;;-2.19;100.00;100096.01;103763;1267;59635;-59
2023/01/10 02:41:15;;;;;;;3.80;2.40;;;;;;;-2.20;100.00;100096.83;103850;1265;72526;-59
2023/01/10 02:43:49;;;;;;;4.90;2.00;;;;;;;-2.16;100.00;100105.98;103706;1274;68754;-59
2023/01/10 02:46:23;;;;;;;3.90;2.30;;;;;;;-2.09;100.00;100107.48;103941;1264;71803;-61
2023/01/10 02:48:53;;;;;;;3.50;1.90;;;;;;;-2.03;100.00;100104.14;103751;1269;59569;-59
2023/01/10 02:51:27;;;;;;;4.00;2.20;;;;;;;-2.03;100.00;100099.51;103954;1264;59670;-59
2023/01/10 02:54:30;;;;;;;4.00;2.10;;;;;;;-2.05;100.00;100107.89;103888;1263;72933;-58
2023/01/10 02:57:18;;;;;;;3.00;1.70;;;;;;;-2.07;100.00;100106.66;103414;1270;68888;-58
2023/01/10 02:59:58;;;;;;;1.80;1.50;;;;;;;-2.03;100.00;100118.23;103892;1267;71953;-60
2023/01/10 03:02:37;;;;;;;4.30;1.80;;;;;;;-2.03;100.00;100115.83;103838;1272;59816;-61
2023/01/10 03:05:08;;;;;;;5.00;2.30;;;;;;;-2.01;100.00;100114.48;103902;1264;59736;-59
2023/01/10 03:07:37;;;;;;;1.90;1.40;;;;;;;-1.99;100.00;100117.44;103915;1281;72239;-58
2023/01/10 03:10:13;;;;;;;2.40;1.70;;;;;;;-2.00;100.00;100117.77;103846;1268;69577;-60
2023/01/10 03:13:12;;;;;;;5.00;1.70;;;;;;;-1.96;100.00;100124.70;103885;1276;72786;-61
2023/01/10 03:15:39;;;;;;;4.60;1.90;;;;;;;-1.84;100.00;100134.51;103822;1267;59625;-60
2023/01/10 03:18:10;;;;;;;4.20;1.70;;;;;;;-1.81;100.00;100134.73;103858;1268;59673;-60
2023/01/10 03:20:37;;;;;;;3.40;2.00;;;;;;;-1.85;100.00;100136.73;104364;1253;72431;-58
2023/01/10 03:23:05;;;;;;;3.20;2.10;;;;;;;-1.87;100.00;100135.31;104294;1275;69811;-59
2023/01/10 03:25:34;;;;;;;6.30;2.00;;;;;;;-1.85;100.00;100139.47;104447;1258;71867;-58
2023/01/10 03:28:02;;;;;;;3.10;1.70;;;;;;;-1.89;100.00;100143.54;104357;1253;59868;-58
2023/01/10 03:30:47;;;;;;;3.60;1.80;;;;;;;-1.91;100.00;100145.06;104402;1253;59817;-58
2023/01/10 03:33:16;;;;;;;5.30;1.80;;;;;;;-1.94;100.00;100151.19;104370;1257;72056;-61
2023/01/10 03:36:09;;;;;;;6.40;1.60;;;;;;;-1.96;100.00;100148.39;104294;1254;69006;-60
2023/01/10 03:39:03;;;;;;;3.90;1.80;;;;;;;-2.02;100.00;100152.60;104420;1256;72591;-59
2023/01/10 03:41:47;;;;;;;4.30;2.30;;;;;;;-2.02;100.00;100157.25;104337;1257;60948;-58
2023/01/10 03:47:20;;;;;;;5.20;2.10;;;;;;;-1.98;100.00;100155.08;104331;1253;72268;-58
2023/01/10 03:49:49;;;;;;;7.40;2.40;;;;;;;-1.98;100.00;100161.44;104359;1253;68995;-59
2023/01/10 06:45:17;;;;;;;13.20;5.80;;;;;;;-5.22;100.00;100320.28;102371;1281;614284;-58
2023/01/10 06:53:00;;;;;;;13.50;5.30;;;;;;;-4.53;100.00;100331.27;103734;1267;61123;-58
2023/01/10 06:55:27;;;;;;;10.80;5.50;;;;;;;-4.37;100.00;100326.76;103502;1269;73280;-61
2023/01/10 06:57:58;;;;;;;;;;;;;;;-4.24;100.00;100324.36;103523;1268;198883;-62
2023/01/10 07:00:26;;;;;;;7.00;5.00;;;;;;;-4.20;100.00;100325.49;103758;1267;73944;-60
2023/01/10 07:02:57;;;;;;;7.80;4.80;;;;;;;-4.22;100.00;100333.68;103961;1274;60502;-61
2023/01/10 07:05:24;;;;;;;9.60;5.30;;;;;;;-4.23;100.00;100339.48;103890;1267;61920;-61
2023/01/10 07:07:51;;;;;;;8.70;5.20;;;;;;;-4.19;100.00;100344.04;103878;1267;71182;-61
2023/01/10 07:10:18;;;;;;;10.50;5.10;;;;;;;-4.11;100.00;100348.19;103926;1280;68608;-60
2023/01/10 07:12:46;;;;;;;6.80;5.20;;;;;;;-4.02;100.00;100352.05;103893;1268;72281;-59
2023/01/10 07:15:17;;;;;;;8.40;5.40;;;;;;;-3.95;100.00;100351.02;104036;1264;59763;-59
2023/01/10 07:17:44;;;;;;;7.20;5.50;;;;;;;-3.90;100.00;100352.88;104627;1263;62014;-58
2023/01/10 07:20:11;;;;;;;9.20;4.50;;;;;;;-3.87;100.00;100355.34;104370;1269;72915;-59
2023/01/10 07:22:38;;;;;;;;;;;;;;;-3.86;100.00;100355.88;104418;1265;68158;-58
2023/01/10 07:25:06;;;;;;;6.10;4.40;;;;;;;-3.87;100.00;100359.45;103901;1267;72282;-61
2023/01/10 07:27:34;;;;;;;13.40;5.00;;;;;;;-3.84;100.00;100364.01;104163;1279;61093;-62
2023/01/10 07:30:01;;;;;;;11.00;5.40;;;;;;;-3.78;100.00;100363.48;105330;1268;60985;-61
2023/01/10 07:32:28;;;;;;;10.10;4.90;;;;;;;-3.73;100.00;100358.48;103710;1271;72260;-61
2023/01/10 07:34:57;;;;;;;6.10;4.10;;;;;;;-3.73;100.00;100350.75;103524;1270;70515;-61
2023/01/10 07:37:24;;;;;;;18.50;7.60;;;;;;;-3.74;100.00;100350.73;103507;1270;72869;-61
2023/01/10 07:39:51;;;;;;;10.00;4.10;;;;;;;-3.73;100.00;100350.59;103486;1282;59789;-63
2023/01/10 07:42:23;;;;;;;9.00;5.10;;;;;;;-3.72;100.00;100355.25;103415;1266;61141;-61
2023/01/10 07:44:50;;;;;;;12.90;5.10;;;;;;;-3.71;100.00;100358.86;103623;1268;72858;-62
2023/01/10 07:47:17;;;;;;;10.20;4.80;;;;;;;-3.71;100.00;100354.92;103552;1270;71311;-62
2023/01/10 07:49:45;;;;;;;13.40;5.70;;;;;;;-3.70;100.00;100360.61;103904;1262;72546;-59
2023/01/10 07:52:12;;;;;;;7.60;5.30;;;;;;;-3.67;100.00;100360.34;104068;1266;60981;-61
2023/01/10 07:54:39;;;;;;;6.00;4.10;;;;;;;-3.66;100.00;100359.84;104048;1261;61238;-59
2023/01/10 07:57:06;;;;;;;6.70;4.40;;;;;;;-3.61;100.00;100362.54;104086;1260;73270;-62
2023/01/10 07:59:33;;;;;;;6.20;4.10;;;;;;;-3.60;100.00;100357.11;104253;1257;69185;-63
2023/01/10 08:02:00;;;;;;;7.20;4.00;;;;;;;-3.55;100.00;100362.37;104175;1261;72419;-64
2023/01/10 08:04:28;;;;;;;8.30;5.10;;;;;;;-3.43;100.00;100354.76;104321;1258;61618;-62
2023/01/10 08:06:55;;;;;;;13.20;5.10;;;;;;;-3.30;100.00;100355.44;104443;1267;59895;-63
2023/01/10 08:09:22;;;;;;;12.90;5.00;;;;;;;-3.26;100.00;100358.63;104344;1260;71922;-63
2023/01/10 08:11:49;;;;;;;7.80;5.00;;;;;;;-3.21;100.00;100357.73;104280;1256;69455;-62
2023/01/10 08:14:16;;;;;;;7.80;5.00;;;;;;;-3.15;100.00;100361.63;104278;1258;73846;-63
2023/01/10 08:16:43;;;;;;;8.00;4.40;;;;;;;-3.16;100.00;100366.26;104204;1258;60029;-62
2023/01/10 08:19:15;;;;;;;7.50;4.40;;;;;;;-3.09;100.00;100367.61;104229;1256;60409;-61
2023/01/10 08:21:43;;;;;;;5.70;4.30;;;;;;;-3.07;100.00;100366.13;104366;1256;72586;-61
2023/01/10 08:24:10;;;;;;;10.30;4.90;;;;;;;-3.03;100.00;100370.66;104448;1258;68961;-59
2023/01/10 08:26:40;;;;;;;6.90;4.40;;;;;;;-2.95;100.00;100362.64;104414;1256;72058;-60
2023/01/10 08:29:07;;;;;;;11.40;4.90;;;;;;;-2.88;100.00;100362.79;104431;1271;60165;-59
2023/01/10 08:31:34;;;;;;;;;;;;;;;-2.82;100.00;100361.04;104242;1260;59784;-59
2023/01/10 08:34:01;;;;;;;8.40;4.40;;;;;;;-2.77;100.00;100365.44;104424;1259;71956;-60
2023/01/10 08:36:28;;;;;;;10.00;4.70;;;;;;;-2.73;100.00;100364.00;104863;1258;69199;-60
2023/01/10 08:38:56;;;;;;;6.30;4.10;;;;;;;-2.71;100.00;100354.75;104560;1258;72856;-60
2023/01/10 08:41:23;;;;;;;;;;;;;;;-2.68;100.00;100354.82;104158;1263;62720;-60
2023/01/10 08:43:51;;;;;;;6.80;4.50;;;;;;;-2.61;100.00;100351.21;104618;1258;59922;-61
2023/01/10 08:46:19;;;;;;;12.30;5.30;;;;;;;-2.43;100.00;100353.99;104879;1256;72629;-60
2023/01/10 08:48:47;;;;;;;8.90;5.20;;;;;;;-2.37;100.00;100354.13;105032;1258;69452;-61
2023/01/10 08:51:14;;;;;;;6.20;4.80;;;;;;;-2.34;100.00;100351.27;104556;1256;73519;-62
2023/01/10 08:53:41;;;;;;;9.60;5.80;;;;;;;-2.35;100.00;100347.65;104251;1267;59776;-61
2023/01/10 08:56:08;;;;;;;10.80;5.40;;;;;;;-2.33;100.00;100343.39;104287;1256;60281;-60
2023/01/10 08:58:35;;;;;;;7.40;4.70;;;;;;;-2.31;100.00;100344.64;104269;1258;74663;-60
2023/01/10 09:01:04;;;;;;;9.20;5.00;;;;;;;-2.35;100.00;100341.46;104284;1254;69265;-60
2023/01/10 09:03:32;;;;;;;9.50;4.80;;;;;;;-2.40;100.00;100340.99;104235;1256;72621;-63
2023/01/10 09:06:00;;;;;;;7.80;5.30;;;;;;;-2.38;100.00;100339.00;104506;1257;61512;-64
2023/01/10 09:08:27;;;;;;;10.40;6.00;;;;;;;-2.30;100.00;100332.12;104798;1259;60235;-64
2023/01/10 09:10:59;;;;;;;10.80;4.10;;;;;;;-2.32;100.00;100334.66;104543;1258;72689;-64
2023/01/10 09:13:30;;;;;;;10.00;6.20;;;;;;;-2.41;100.00;100334.81;104419;1256;68852;-63
2023/01/10 09:15:57;;;;;;;9.10;5.30;;;;;;;-2.47;100.00;100332.46;104527;1258;71851;-63
2023/01/10 09:18:24;;;;;;;11.00;5.40;;;;;;;-2.50;100.00;100334.63;104877;1254;59759;-63
2023/01/10 09:20:51;;;;;;;9.50;5.00;;;;;;;-2.51;100.00;100335.63;104783;1256;59734;-62
2023/01/10 09:23:19;;;;;;;7.80;4.50;;;;;;;-2.55;100.00;100337.08;104711;1255;72658;-62
2023/01/10 09:25:51;;;;;;;11.30;5.50;;;;;;;-2.58;100.00;100342.52;104779;1256;69788;-63
2023/01/10 09:28:20;;;;;;;7.30;4.90;;;;;;;-2.57;100.00;100358.32;104526;1256;73516;-62
2023/01/10 09:30:47;;;;;;;12.20;5.50;;;;;;;-2.58;100.00;100351.62;104875;1256;61012;-62
2023/01/10 09:34:21;;;;;;;12.10;5.30;;;;;;;-2.58;100.00;100351.44;104750;1258;59628;-62
2023/01/10 09:38:17;;;;;;;7.90;4.30;;;;;;;-2.59;100.00;100352.11;104260;1259;73455;-61
2023/01/10 09:41:10;;;;;;;8.10;4.80;;;;;;;-2.56;100.00;100359.57;104281;1258;68583;-62
2023/01/10 09:43:52;;;;;;;8.60;4.80;;;;;;;-2.54;100.00;100359.95;104416;1258;71745;-62
2023/01/10 09:46:41;;;;;;;18.40;4.80;;;;;;;-2.53;100.00;100366.30;104740;1255;59737;-61
2023/01/10 09:49:29;;;;;;;9.80;4.50;;;;;;;-2.56;100.00;100365.22;104722;1256;59773;-61
2023/01/10 09:51:56;;;;;;;10.00;4.10;;;;;;;-2.52;100.00;100366.84;104692;1259;73913;-62
2023/01/10 09:54:28;;;;;;;8.90;5.20;;;;;;;-2.49;100.00;100362.09;104917;1256;68577;-61
2023/01/10 09:56:55;;;;;;;8.70;4.30;;;;;;;-2.49;100.00;100358.67;104571;1259;72091;-62
2023/01/10 09:59:25;;;;;;;12.70;5.90;;;;;;;-2.51;100.00;100357.09;104648;1255;59948;-63
2023/01/10 10:01:58;;;;;;;10.80;4.80;;;;;;;-2.52;100.00;100357.75;104369;1256;61325;-65
2023/01/10 10:04:34;;;;;;;8.90;4.20;;;;;;;-2.56;100.00;100363.17;104378;1263;71914;-62
2023/01/10 10:42:58;;;;;;;7.80;4.10;;;;;;;-3.47;100.00;100364.77;101909;1292;601438;-58
2023/01/10 10:45:38;;;;;;;9.10;4.70;;;;;;;-3.19;100.00;100365.49;103484;1277;62066;-59
2023/01/10 10:48:13;;;;;;;15.40;5.10;;;;;;;-3.01;100.00;100359.23;103578;1273;61340;-59
2023/01/10 10:51:01;;;;;;;11.90;4.80;;;;;;;-2.94;100.00;100355.42;103677;1272;71999;-61
2023/01/10 10:53:30;;;;;;;8.00;4.50;;;;;;;-2.90;100.00;100351.59;104608;1256;71130;-62
2023/01/10 10:55:57;;;;;;;20.90;5.10;;;;;;;-2.88;100.00;100344.08;104168;1254;455194;-63
2023/01/10 10:58:25;;;;;;;;;;;;;;;-2.83;100.00;100338.71;104421;1253;62169;-62
2023/01/10 11:00:53;;;;;;;;;;;;;;;-2.81;100.00;100334.65;104632;1258;60109;-60
2023/01/10 11:04:00;;;;;;;6.70;3.60;;;;;;;-2.78;100.00;100331.61;104329;1260;72982;-60
2023/01/10 11:06:29;;;;;;;7.90;3.90;;;;;;;-2.77;100.00;100323.58;104574;1254;71696;-59
2023/01/10 11:09:02;;;;;;;8.50;3.80;;;;;;;-2.71;100.00;100326.77;104619;1259;72273;-61
2023/01/10 11:11:46;;;;;;;5.00;3.40;;;;;;;-2.69;100.00;100330.78;104092;1262;63748;-62
2023/01/10 11:14:13;;;;;;;7.90;4.00;;;;;;;-2.66;100.00;100332.22;104282;1254;61060;-60
2023/01/10 11:16:43;;;;;;;7.00;4.30;;;;;;;-2.64;100.00;100333.81;104617;1260;73284;-58
2023/01/10 11:19:22;;;;;;;5.90;3.60;;;;;;;-2.57;100.00;100332.76;104759;1256;70710;-60
2023/01/10 11:22:03;;;;;;;4.30;3.40;;;;;;;-2.53;100.00;100341.07;104489;1259;74395;-63
2023/01/10 11:24:35;;;;;;;7.60;3.70;;;;;;;-2.52;100.00;100346.26;104643;1259;59746;-61
2023/01/10 11:27:13;;;;;;;3.70;3.20;;;;;;;-2.50;100.00;100347.49;104630;1258;60226;-65
2023/01/10 11:29:48;;;;;;;9.00;3.60;;;;;;;-2.46;100.00;100343.30;104313;1260;74823;-61
2023/01/10 11:32:16;;;;;;;4.90;3.80;;;;;;;-2.44;100.00;100336.47;105266;1254;72659;-59
2023/01/10 11:35:01;;;;;;;5.40;3.10;;;;;;;-2.40;100.00;100337.91;104552;1256;73056;-61
2023/01/10 11:37:31;;;;;;;4.80;3.50;;;;;;;-2.31;100.00;100338.09;104741;1256;64044;-64
2023/01/10 11:40:19;;;;;;;6.70;3.30;;;;;;;-2.17;100.00;100335.82;104842;1253;60470;-60
2023/01/10 11:42:46;;;;;;;;;;;;;;;-2.08;100.00;100334.45;104833;1256;74993;-58
2023/01/10 11:45:16;;;;;;;9.40;3.30;;;;;;;-2.12;100.00;100334.88;104794;1257;70004;-62
2023/01/10 11:47:57;;;;;;;5.20;3.80;;;;;;;-2.17;100.00;100332.70;104789;1253;74018;-58
2023/01/10 11:50:30;;;;;;;5.60;3.10;;;;;;;-2.19;100.00;100338.35;104690;1254;59775;-60
2023/01/10 11:52:57;;;;;;;8.10;3.20;;;;;;;-2.20;100.00;100338.33;104656;1254;61007;-60
2023/01/10 11:55:26;;;;;;;;;;;;;;;-2.17;100.00;100344.92;104830;1253;73911;-60
2023/01/10 11:58:11;;;;;;;7.90;3.40;;;;;;;-2.25;100.00;100343.89;104712;1256;71184;-60
2023/01/10 12:00:42;;;;;;;5.10;2.70;;;;;;;-2.28;100.00;100341.08;104797;1259;72860;-59
2023/01/10 12:03:19;;;;;;;9.00;3.20;;;;;;;-2.24;100.00;100346.65;104458;1256;59863;-60
2023/01/10 12:06:14;;;;;;;5.90;2.70;;;;;;;-2.26;100.00;100351.25;104389;1256;59743;-60
2023/01/10 12:08:43;;;;;;;8.80;2.90;;;;;;;-2.25;100.00;100347.66;104590;1259;73017;-60
2023/01/10 12:11:14;;;;;;;11.40;3.60;;;;;;;-2.24;100.00;100350.44;104400;1258;70170;-59
2023/01/10 12:13:43;;;;;;;4.30;3.10;;;;;;;-2.22;100.00;100353.41;104630;1254;72427;-60
2023/01/10 12:16:15;;;;;;;6.80;3.50;;;;;;;-2.18;100.00;100354.35;104593;1256;61792;-60
2023/01/10 12:18:43;;;;;;;6.10;3.30;;;;;;;-2.19;100.00;100346.77;104599;1256;60146;-58
2023/01/10 12:21:11;;;;;;;4.50;2.90;;;;;;;-2.19;100.00;100348.48;104499;1266;72564;-60
2023/01/10 12:23:40;;;;;;;6.10;2.90;;;;;;;-2.19;100.00;100359.13;104476;1270;69071;-59
2023/01/10 12:26:08;;;;;;;7.00;3.30;;;;;;;-2.18;100.00;100359.84;104409;1259;72084;-62
2023/01/10 12:28:56;;;;;;;3.80;2.60;;;;;;;-2.20;100.00;100367.52;104373;1261;59790;-59
2023/01/10 12:31:24;;;;;;;5.50;2.70;;;;;;;-2.25;100.00;100369.81;104379;1260;60889;-59
2023/01/10 12:33:58;;;;;;;6.40;2.80;;;;;;;-2.26;100.00;100374.61;104577;1254;72914;-61
2023/01/10 12:36:57;;;;;;;6.00;2.90;;;;;;;-2.31;100.00;100368.52;104215;1273;70139;-60
2023/01/10 12:39:32;;;;;;;5.20;2.90;;;;;;;-2.33;100.00;100371.89;105137;1254;72180;-60
2023/01/10 12:45:19;;;;;;;12.60;3.20;;;;;;;-2.27;100.00;100376.48;104692;1256;61541;-60
2023/01/10 12:48:03;;;;;;;9.00;3.30;;;;;;;-2.28;100.00;100381.27;104461;1258;74021;-60
2023/01/10 12:50:36;;;;;;;7.70;2.80;;;;;;;-2.29;100.00;100384.00;104721;1259;69953;-60
2023/01/10 12:53:35;;;;;;;6.50;2.80;;;;;;;-2.29;100.00;100384.70;104219;1272;72213;-60
2023/01/10 12:56:05;;;;;;;6.70;2.30;;;;;;;-2.29;100.00;100375.39;104394;1254;60905;-60
2023/01/10 12:58:57;;;;;;;4.70;2.20;;;;;;;-2.30;100.00;100375.21;104175;1274;60062;-59
2023/01/10 13:01:30;;;;;;;3.80;2.80;;;;;;;-2.34;100.00;100372.05;104341;1269;73090;-61
2023/01/10 13:04:09;;;;;;;4.00;2.70;;;;;;;-2.37;100.00;100368.39;104359;1266;70183;-63
2023/01/10 13:06:37;;;;;;;4.30;2.70;;;;;;;-2.40;100.00;100358.54;104369;1254;74501;-59
2023/01/10 13:09:12;;;;;;;5.40;2.70;;;;;;;-2.43;100.00;100359.32;104490;1259;60937;-59
2023/01/10 13:11:43;;;;;;;5.10;2.90;;;;;;;-2.44;100.00;100364.29;104309;1266;60150;-58
2023/01/10 13:14:12;;;;;;;8.50;3.20;;;;;;;-2.43;100.00;100382.15;104474;1254;73517;-59
2023/01/10 13:16:51;;;;;;;4.00;2.30;;;;;;;-2.44;100.00;100389.71;104535;1259;69560;-58
2023/01/10 13:23:32;;;;;;;5.90;3.10;;;;;;;-2.53;100.00;100406.33;104728;1254;60856;-58
2023/01/10 13:26:03;;;;;;;11.30;2.70;;;;;;;-2.52;100.00;100411.84;104540;1255;59745;-61
2023/01/10 13:28:32;;;;;;;4.60;2.60;;;;;;;-2.54;100.00;100411.97;104710;1254;72345;-59
2023/01/10 13:31:27;;;;;;;4.80;2.70;;;;;;;-2.55;100.00;100409.70;105196;1254;70302;-59
2023/01/10 13:33:59;;;;;;;3.50;2.60;;;;;;;-2.59;100.00;100417.33;104740;1254;74804;-61
2023/01/10 13:36:34;;;;;;;4.40;2.70;;;;;;;-2.61;100.00;100421.93;104793;1259;60771;-60
2023/01/10 13:39:03;;;;;;;3.90;2.60;;;;;;;-2.61;100.00;100423.30;104764;1257;59879;-59
2023/01/10 13:45:00;;;;;;;6.50;2.70;;;;;;;-2.62;100.00;100431.68;104896;1253;71655;-60
2023/01/10 13:47:44;;;;;;;4.40;3.00;;;;;;;-2.64;100.00;100438.49;105002;1254;75754;-63
2023/01/10 13:50:35;;;;;;;11.00;2.70;;;;;;;-2.62;100.00;100439.94;104542;1258;61498;-60
2023/01/10 13:53:03;;;;;;;10.50;3.80;;;;;;;-2.65;100.00;100439.69;105024;1253;60551;-59
2023/01/10 13:55:41;;;;;;;3.20;2.40;;;;;;;-2.63;100.00;100444.55;104474;1257;73405;-60
2023/01/10 13:58:15;;;;;;;5.20;3.10;;;;;;;-2.63;100.00;100439.90;104635;1254;70233;-61
2023/01/10 16:04:10;;;;;;;7.00;2.60;;;;;;;-3.66;100.00;100472.60;102025;1297;617991;-62
2023/01/10 16:06:38;;;;;;;10.40;3.00;;;;;;;-3.40;100.00;100470.75;105312;1268;60271;-66
2023/01/10 16:09:06;;;;;;;9.50;2.80;;;;;;;-3.27;100.00;100470.23;103716;1270;59359;-67
2023/01/10 16:14:22;;;;;;;10.20;2.80;;;;;;;-3.01;100.00;100470.05;104058;1270;71405;-63
2023/01/10 16:16:49;;;;;;;12.20;2.90;;;;;;;-2.94;100.00;100463.86;104014;1262;97601;-61
2023/01/10 16:19:16;;;;;;;8.10;3.20;;;;;;;-2.87;100.00;100467.98;103915;1263;59677;-67
2023/01/10 16:21:45;;;;;;;13.60;3.40;;;;;;;-2.83;100.00;100471.19;103945;1260;59471;-69
2023/01/10 16:24:34;;;;;;;5.10;2.60;;;;;;;-2.77;100.00;100466.88;103990;1264;72591;-63
2023/01/10 16:27:05;;;;;;;14.80;3.40;;;;;;;-2.73;100.00;100470.55;103914;1260;68933;-63
2023/01/10 16:29:32;;;;;;;;;;;;;;;-2.72;100.00;100473.85;104163;1261;72042;-71
2023/01/10 16:32:00;;;;;;;6.30;2.40;;;;;;;-2.69;100.00;100477.18;104233;1263;59918;-68
2023/01/10 16:34:33;;;;;;;6.70;2.20;;;;;;;-2.66;100.00;100475.35;104065;1264;60967;-63
2023/01/10 16:36:59;;;;;;;4.80;2.20;;;;;;;-2.64;100.00;100475.75;103901;1269;72475;-63
2023/01/10 16:39:27;;;;;;;10.30;2.30;;;;;;;-2.61;100.00;100473.42;103950;1262;70322;-62
2023/01/10 16:44:40;;;;;;;4.40;2.30;;;;;;;-2.54;100.00;100473.25;103966;1269;60323;-63
2023/01/10 16:47:07;;;;;;;5.10;2.80;;;;;;;-2.55;100.00;100472.72;104146;1260;60402;-62
2023/01/10 16:49:34;;;;;;;9.10;2.50;;;;;;;-2.52;100.00;100473.64;103938;1268;73079;-62
2023/01/10 16:52:02;;;;;;;6.30;1.90;;;;;;;-2.51;100.00;100470.04;104135;1259;69251;-61
2023/01/10 16:54:29;;;;;;;12.70;3.20;;;;;;;-2.51;100.00;100472.45;104189;1260;74063;-61
2023/01/10 16:56:56;;;;;;;10.30;2.40;;;;;;;-2.50;100.00;100472.30;104227;1257;60381;-61
2023/01/10 16:59:23;;;;;;;3.80;2.30;;;;;;;-2.49;100.00;100475.42;104161;1272;60275;-61
2023/01/10 17:01:55;;;;;;;4.10;2.20;;;;;;;-2.48;100.00;100471.50;104536;1256;73272;-61
2023/01/10 17:04:26;;;;;;;6.80;2.20;;;;;;;-2.47;100.00;100468.43;104312;1264;71103;-62
2023/01/10 17:06:55;;;;;;;4.90;2.60;;;;;;;-2.48;100.00;100472.19;104338;1260;73080;-63
2023/01/10 17:09:24;;;;;;;5.50;2.40;;;;;;;-2.46;100.00;100472.05;104380;1256;60518;-63
2023/01/10 17:12:03;;;;;;;8.10;3.60;;;;;;;-2.45;100.00;100472.43;104913;1256;59685;-63
2023/01/10 17:14:34;;;;;;;4.00;2.60;;;;;;;-2.43;100.00;100469.57;104556;1259;72660;-65
2023/01/10 17:17:02;;;;;;;3.70;2.30;;;;;;;-2.40;100.00;100471.51;104813;1256;70264;-62
2023/01/10 17:19:29;;;;;;;8.80;2.70;;;;;;;-2.39;100.00;100477.04;104591;1257;71754;-62
2023/01/10 17:21:56;;;;;;;5.10;2.00;;;;;;;-2.38;100.00;100479.11;104454;1260;59651;-63
2023/01/10 17:24:23;;;;;;;;;;;;;;;-2.38;100.00;100484.79;104515;1260;61332;-63
2023/01/10 17:26:51;;;;;;;5.80;2.60;;;;;;;-2.40;100.00;100488.69;104424;1259;74275;-63
2023/01/10 17:29:18;;;;;;;3.90;2.20;;;;;;;-2.39;100.00;100488.19;104352;1259;69027;-62
2023/01/10 17:31:46;;;;;;;3.60;2.20;;;;;;;-2.38;100.00;100490.10;104240;1258;72654;-62
2023/01/10 17:34:13;;;;;;;5.20;2.20;;;;;;;-2.37;100.00;100490.81;104534;1256;60412;-62
2023/01/10 17:36:41;;;;;;;3.80;2.00;;;;;;;-2.38;100.00;100487.35;104454;1256;60537;-61
2023/01/10 17:39:08;;;;;;;4.90;2.00;;;;;;;-2.37;100.00;100491.15;104298;1258;72221;-62
2023/01/10 17:41:35;;;;;;;2.60;1.90;;;;;;;-2.37;100.00;100492.19;103956;1257;69810;-61
2023/01/10 17:44:02;;;;;;;7.60;2.70;;;;;;;-2.38;100.00;100490.80;104241;1257;72409;-62
2023/01/10 17:46:29;;;;;;;8.80;2.80;;;;;;;-2.40;100.00;100495.89;104125;1262;60200;-62
2023/01/10 17:48:56;;;;;;;6.80;2.60;;;;;;;-2.43;100.00;100497.90;104041;1257;59782;-61
2023/01/10 17:51:23;;;;;;;7.40;2.50;;;;;;;-2.45;100.00;100500.58;104175;1257;73053;-61
2023/01/10 17:53:56;;;;;;;3.30;2.40;;;;;;;-2.46;100.00;100500.89;104211;1263;69892;-61
2023/01/10 17:56:23;;;;;;;6.20;2.10;;;;;;;-2.49;100.00;100506.50;104212;1260;72688;-61
2023/01/10 17:58:52;;;;;;;7.10;2.40;;;;;;;-2.52;100.00;100506.59;104071;1260;59819;-62
2023/01/10 18:01:22;;;;;;;7.40;2.20;;;;;;;-2.57;100.00;100507.84;104047;1275;60223;-61
2023/01/10 18:03:52;;;;;;;14.90;2.20;;;;;;;-2.61;100.00;100508.09;104132;1257;73323;-62
2023/01/10 18:06:21;;;;;;;5.10;2.20;;;;;;;-2.65;100.00;100504.23;104513;1260;69849;-61
2023/01/10 18:08:52;;;;;;;5.40;2.70;;;;;;;-2.71;100.00;100499.44;104199;1261;71658;-62
2023/01/10 18:11:19;;;;;;;;;;;;;;;-2.71;100.00;100497.56;104110;1272;59847;-66
2023/01/10 18:13:47;;;;;;;12.60;3.00;;;;;;;-2.76;100.00;100493.65;104081;1256;61495;-64
2023/01/10 18:16:14;;;;;;;5.40;2.50;;;;;;;-2.77;100.00;100499.30;104518;1260;73296;-64
2023/01/10 18:18:42;;;;;;;7.00;2.70;;;;;;;-2.80;100.00;100498.35;104224;1258;68767;-65
2023/01/10 18:21:13;;;;;;;3.70;2.20;;;;;;;-2.83;100.00;100496.92;104189;1262;72413;-64
2023/01/10 18:23:40;;;;;;;4.00;2.40;;;;;;;-2.83;100.00;100502.57;104328;1261;59768;-65
2023/01/10 18:26:09;;;;;;;9.10;2.90;;;;;;;-2.85;100.00;100504.58;104481;1259;59703;-63
2023/01/10 18:28:41;;;;;;;10.00;2.50;;;;;;;-2.84;100.00;100509.77;104181;1268;72176;-63
2023/01/10 18:31:16;;;;;;;12.20;2.90;;;;;;;-2.87;100.00;100512.95;104281;1256;69818;-65
2023/01/10 18:33:44;;;;;;;7.20;2.40;;;;;;;-2.87;100.00;100519.80;104291;1260;71938;-65
2023/01/10 18:36:16;;;;;;;6.30;2.80;;;;;;;-2.86;100.00;100526.00;104099;1256;63671;-65
2023/01/10 18:38:44;;;;;;;7.90;3.50;;;;;;;-2.87;100.00;100533.18;104118;1264;59705;-65
2023/01/10 18:41:12;;;;;;;4.50;2.90;;;;;;;-2.89;100.00;100550.98;104032;1270;72410;-64
2023/01/10 18:43:39;;;;;;;9.70;3.00;;;;;;;-2.95;100.00;100555.27;104139;1256;68621;-65
2023/01/10 18:46:11;;;;;;;11.60;2.50;;;;;;;-3.00;100.00;100559.43;104034;1272;72341;-65
2023/01/10 18:48:38;;;;;;;8.40;2.50;;;;;;;-3.07;100.00;100560.44;104091;1271;60603;-65
2023/01/10 18:51:07;;;;;;;8.50;2.80;;;;;;;-3.16;100.00;100570.34;104326;1264;60367;-65
2023/01/10 18:53:35;;;;;;;6.90;2.60;;;;;;;-3.22;100.00;100576.69;104057;1278;72421;-67
2023/01/10 18:56:03;;;;;;;3.20;2.40;;;;;;;-3.27;100.00;100572.09;104000;1272;71945;-63
2023/01/10 18:58:30;;;;;;;;;;;;;;;-3.35;100.00;100575.45;104117;1276;72738;-64
2023/01/10 19:01:03;;;;;;;5.90;2.20;;;;;;;-3.47;100.00;100573.92;104129;1262;59739;-64
2023/01/10 19:03:33;;;;;;;10.00;2.70;;;;;;;-3.55;100.00;100573.86;104188;1271;59779;-64
2023/01/10 19:06:01;;;;;;;9.00;2.80;;;;;;;-3.59;100.00;100572.38;104159;1272;72324;-64
2023/01/10 19:08:30;;;;;;;13.80;3.20;;;;;;;-3.59;100.00;100577.02;104264;1262;69073;-65
2023/01/10 19:10:57;;;;;;;5.60;2.80;;;;;;;-3.60;100.00;100577.84;104116;1261;73929;-64
2023/01/10 19:13:39;;;;;;;7.10;2.70;;;;;;;-3.62;100.00;100584.45;103996;1262;60201;-65
2023/01/10 19:16:14;;;;;;;6.60;3.10;;;;;;;-3.65;100.00;100582.48;104128;1262;59769;-65
2023/01/10 19:18:42;;;;;;;5.40;3.00;;;;;;;-3.69;100.00;100590.40;104231;1262;74484;-63
2023/01/10 19:21:14;;;;;;;9.50;2.60;;;;;;;-3.74;100.00;100594.56;104141;1257;69739;-63
2023/01/10 19:23:42;;;;;;;6.90;3.00;;;;;;;-3.77;100.00;100596.00;104034;1272;73789;-63
2023/01/10 19:26:09;;;;;;;8.90;3.50;;;;;;;-3.78;100.00;100600.79;104144;1258;61626;-64